createdAt,value
2019-05-06T00:00:24.568Z,19.87
2019-05-06T00:03:01.251Z,17.42
2019-05-06T00:05:36.607Z,19.85
2019-05-06T00:08:14.339Z,19.20
2019-05-06T00:10:49.142Z,15.08
2019-05-06T00:13:24.478Z,19.67
2019-05-06T00:15:59.941Z,14.45
2019-05-06T00:18:35.388Z,19.95
2019-05-06T00:21:10.676Z,17.92
2019-05-06T00:23:50.800Z,19.82
2019-05-06T00:26:57.252Z,17.65
2019-05-06T00:32:07.158Z,18.27
2019-05-06T00:34:43.720Z,17.65
2019-05-06T00:37:19.052Z,17.50
2019-05-06T00:40:04.525Z,23.05
2019-05-06T00:42:54.231Z,17.87
2019-05-06T00:45:29.742Z,20.52
2019-05-06T00:48:05.178Z,25.50
2019-05-06T00:50:40.655Z,29.20
2019-05-06T00:53:18.119Z,20.40
2019-05-06T00:55:53.923Z,19.35
2019-05-06T00:58:29.351Z,21.07
2019-05-06T01:01:04.953Z,22.75
2019-05-06T01:03:40.275Z,18.40
2019-05-06T01:06:15.821Z,20.45
2019-05-06T01:08:51.196Z,19.45
2019-05-06T01:11:26.689Z,20.88
2019-05-06T01:14:09.737Z,21.12
2019-05-06T01:16:45.261Z,18.48
2019-05-06T01:19:21.073Z,16.55
2019-05-06T01:21:56.467Z,23.83
2019-05-06T01:24:31.775Z,19.12
2019-05-06T01:27:10.119Z,20.08
2019-05-06T01:29:45.435Z,22.80
2019-05-06T01:32:20.839Z,23.25
2019-05-06T01:34:56.378Z,25.35
2019-05-06T01:37:32.082Z,23.83
2019-05-06T01:40:29.759Z,22.05
2019-05-06T01:43:09.692Z,24.07
2019-05-06T01:45:45.028Z,21.57
2019-05-06T01:48:39.418Z,22.17
2019-05-06T01:51:14.800Z,22.13
2019-05-06T01:53:51.466Z,23.05
2019-05-06T01:56:26.866Z,22.77
2019-05-06T01:59:04.376Z,26.48
2019-05-06T02:01:39.388Z,21.75
2019-05-06T02:04:14.749Z,23.77
2019-05-06T02:06:50.025Z,26.27
2019-05-06T02:09:25.327Z,26.68
2019-05-06T02:12:00.594Z,22.82
2019-05-06T02:14:36.020Z,20.97
2019-05-06T02:17:11.421Z,21.23
2019-05-06T02:19:46.876Z,23.87
2019-05-06T02:22:44.337Z,26.55
2019-05-06T02:25:34.359Z,20.17
2019-05-06T02:28:14.304Z,24.90
2019-05-06T02:31:05.317Z,19.57
2019-05-06T02:34:08.705Z,20.57
2019-05-06T02:36:58.324Z,21.73
2019-05-06T02:39:34.202Z,23.47
2019-05-06T02:42:09.574Z,20.20
2019-05-06T02:44:44.961Z,24.27
2019-05-06T02:47:29.226Z,29.00
2019-05-06T02:50:09.270Z,24.92
2019-05-06T02:52:44.576Z,23.20
2019-05-06T02:55:19.908Z,22.75
2019-05-06T02:57:55.347Z,24.63
2019-05-06T03:00:32.905Z,24.87
2019-05-06T03:03:07.786Z,23.52
2019-05-06T03:05:43.916Z,28.25
2019-05-06T03:08:19.649Z,27.75
2019-05-06T03:10:55.062Z,24.75
2019-05-06T03:13:33.635Z,26.27
2019-05-06T03:16:07.753Z,25.88
2019-05-06T03:18:43.426Z,27.07
2019-05-06T03:21:37.130Z,21.05
2019-05-06T03:24:32.938Z,22.20
2019-05-06T03:27:07.081Z,22.60
2019-05-06T03:29:44.410Z,26.85
2019-05-06T03:32:28.489Z,26.07
2019-05-06T03:35:19.002Z,23.92
2019-05-06T03:37:33.652Z,22.40
2019-05-06T03:40:09.290Z,27.37
2019-05-06T03:42:44.646Z,25.77
2019-05-06T03:45:33.283Z,27.73
2019-05-06T03:48:17.713Z,23.70
2019-05-06T03:50:55.884Z,28.57
2019-05-06T03:53:33.291Z,31.55
2019-05-06T03:56:08.730Z,23.20
2019-05-06T03:58:44.236Z,24.47
2019-05-06T04:01:23.999Z,28.02
2019-05-06T04:03:58.242Z,33.00
2019-05-06T04:06:33.742Z,28.80
2019-05-06T04:09:09.083Z,28.05
2019-05-06T04:11:45.458Z,25.62
2019-05-06T04:14:23.775Z,24.47
2019-05-06T04:17:19.329Z,24.27
2019-05-06T04:20:04.271Z,23.90
2019-05-06T04:23:13.326Z,29.77
2019-05-06T04:26:03.563Z,23.73
2019-05-06T04:28:39.298Z,28.60
2019-05-06T04:31:14.633Z,23.32
2019-05-06T04:34:08.409Z,25.25
2019-05-06T04:36:29.479Z,26.77
2019-05-06T04:39:06.295Z,28.98
2019-05-06T04:41:43.323Z,31.25
2019-05-06T04:44:19.762Z,27.95
2019-05-06T04:46:55.893Z,28.73
2019-05-06T04:49:33.106Z,28.12
2019-05-06T04:52:08.303Z,28.23
2019-05-06T04:54:45.381Z,26.95
2019-05-06T04:57:23.481Z,28.73
2019-05-06T04:59:58.889Z,31.15
2019-05-06T05:02:34.428Z,27.10
2019-05-06T05:05:13.906Z,28.60
2019-05-06T05:07:49.415Z,31.87
2019-05-06T05:10:28.428Z,35.73
2019-05-06T05:13:23.226Z,27.10
2019-05-06T05:16:17.259Z,33.00
2019-05-06T05:18:56.247Z,25.95
2019-05-06T05:21:32.248Z,31.12
2019-05-06T05:24:07.735Z,37.13
2019-05-06T05:26:46.807Z,34.05
2019-05-06T05:29:20.384Z,24.37
2019-05-06T05:31:55.707Z,30.60
2019-05-06T05:34:39.961Z,27.40
2019-05-06T05:37:08.303Z,27.50
2019-05-06T05:39:43.681Z,33.50
2019-05-06T05:42:25.293Z,36.13
2019-05-06T05:45:02.651Z,30.60
2019-05-06T05:47:37.799Z,33.53
2019-05-06T05:50:23.945Z,27.37
2019-05-06T05:52:59.423Z,30.45
2019-05-06T05:55:34.922Z,31.65
2019-05-06T05:58:12.810Z,33.25
2019-05-06T06:00:52.105Z,28.05
2019-05-06T06:03:27.588Z,32.00
2019-05-06T06:06:03.213Z,33.38
2019-05-06T06:08:38.879Z,29.75
2019-05-06T06:11:22.944Z,35.40
2019-05-06T06:14:02.879Z,33.73
2019-05-06T06:17:09.479Z,31.37
2019-05-06T06:19:53.375Z,34.80
2019-05-06T06:22:29.572Z,32.13
2019-05-06T06:25:05.638Z,34.20
2019-05-06T06:27:49.161Z,33.25
2019-05-06T06:30:33.807Z,33.67
2019-05-06T06:33:12.945Z,28.47
2019-05-06T06:35:57.846Z,35.15
2019-05-06T06:38:49.042Z,33.98
2019-05-06T06:41:24.463Z,27.00
2019-05-06T06:44:03.732Z,29.45
2019-05-06T06:46:39.143Z,31.42
2019-05-06T06:49:14.550Z,31.42
2019-05-06T06:51:49.977Z,24.55
2019-05-06T06:54:25.286Z,27.17
2019-05-06T06:57:09.324Z,28.45
2019-05-06T06:59:59.791Z,23.80
2019-05-06T07:02:45.573Z,23.57
2019-05-06T07:05:37.536Z,26.07
2019-05-06T07:08:13.137Z,25.08
2019-05-06T07:10:48.517Z,24.82
2019-05-06T07:13:24.229Z,28.45
2019-05-06T07:15:59.630Z,23.85
2019-05-06T07:18:34.993Z,26.02
2019-05-06T07:21:19.738Z,28.05
2019-05-06T07:23:55.247Z,23.95
2019-05-06T07:26:35.199Z,25.20
2019-05-06T07:29:17.240Z,29.48
2019-05-06T07:31:47.627Z,21.95
2019-05-06T07:34:23.505Z,21.80
2019-05-06T07:36:58.876Z,26.07
2019-05-06T07:39:35.503Z,21.75
2019-05-06T07:42:17.108Z,25.30
2019-05-06T07:45:12.509Z,26.15
2019-05-06T07:47:53.071Z,19.82
2019-05-06T07:50:28.538Z,22.22
2019-05-06T07:53:08.634Z,20.52
2019-05-06T07:55:44.008Z,19.85
2019-05-06T07:58:19.389Z,24.35
2019-05-06T08:00:54.842Z,17.70
2019-05-06T08:03:30.191Z,19.50
2019-05-06T08:06:05.610Z,23.92
2019-05-06T08:08:43.044Z,20.97
2019-05-06T08:11:18.042Z,19.42
2019-05-06T08:13:53.446Z,22.25
2019-05-06T08:16:31.932Z,23.22
2019-05-06T08:19:07.372Z,17.57
2019-05-06T08:21:44.328Z,22.48
2019-05-06T08:24:19.705Z,19.95
2019-05-06T08:26:55.089Z,22.27
2019-05-06T08:29:30.537Z,25.55
2019-05-06T08:32:05.963Z,22.17
2019-05-06T08:34:42.155Z,21.45
2019-05-06T08:37:31.923Z,21.07
2019-05-06T08:40:06.945Z,23.85
2019-05-06T08:42:42.736Z,21.15
2019-05-06T08:45:18.398Z,17.77
2019-05-06T08:47:53.800Z,18.80
2019-05-06T08:50:46.590Z,17.98
2019-05-06T08:53:35.385Z,19.52
2019-05-06T08:56:16.425Z,24.47
2019-05-06T08:58:52.837Z,19.12
2019-05-06T09:01:53.531Z,19.75
2019-05-06T09:04:31.936Z,19.70
2019-05-06T09:07:06.863Z,18.02
2019-05-06T09:09:42.246Z,17.10
2019-05-06T09:12:19.334Z,18.05
2019-05-06T09:14:54.816Z,18.85
2019-05-06T09:17:30.196Z,18.62
2019-05-06T09:20:05.858Z,21.07
2019-05-06T09:22:42.922Z,18.20
2019-05-06T09:25:18.224Z,16.77
2019-05-06T09:28:04.134Z,23.20
2019-05-06T09:30:46.568Z,22.25
2019-05-06T09:33:27.228Z,26.65
2019-05-06T09:36:03.360Z,20.08
2019-05-06T09:38:41.960Z,16.95
2019-05-06T09:41:17.245Z,17.07
2019-05-06T09:43:52.923Z,20.25
2019-05-06T09:46:28.801Z,20.02
2019-05-06T09:49:12.644Z,17.73
2019-05-06T09:51:47.258Z,18.80
2019-05-06T09:54:42.850Z,21.60
2019-05-06T09:57:25.566Z,19.65
2019-05-06T10:00:04.548Z,17.77
2019-05-06T10:02:39.821Z,15.00
2019-05-06T10:05:15.361Z,20.68
2019-05-06T10:07:52.368Z,18.50
2019-05-06T10:10:28.043Z,18.35
2019-05-06T10:13:05.169Z,18.70
2019-05-06T10:15:42.649Z,14.35
2019-05-06T10:18:17.738Z,17.12
2019-05-06T10:20:53.191Z,16.17
2019-05-06T10:23:28.829Z,18.10
2019-05-06T10:26:04.717Z,16.30
2019-05-06T10:29:08.750Z,13.43
2019-05-06T10:31:48.744Z,17.45
2019-05-06T10:34:24.177Z,11.12
2019-05-06T10:37:20.819Z,11.68
2019-05-06T10:40:05.468Z,16.85
2019-05-06T10:42:46.603Z,15.88
2019-05-06T10:45:32.379Z,12.95
2019-05-06T10:48:09.093Z,17.80
2019-05-06T10:50:48.514Z,14.25
2019-05-06T10:53:25.326Z,17.52
2019-05-06T10:56:06.289Z,18.15
2019-05-06T10:58:44.042Z,15.65
2019-05-06T11:01:33.511Z,15.30
2019-05-06T11:04:08.886Z,21.77
2019-05-06T11:06:45.661Z,13.48
2019-05-06T11:09:22.694Z,16.12
2019-05-06T11:11:58.007Z,17.27
2019-05-06T11:14:33.461Z,19.07
2019-05-06T11:17:12.485Z,14.53
2019-05-06T11:19:53.322Z,17.67
2019-05-06T11:22:32.505Z,14.70
2019-05-06T11:25:07.185Z,14.85
2019-05-06T11:27:45.079Z,13.13
2019-05-06T11:30:27.719Z,15.05
2019-05-06T11:33:13.080Z,12.18
2019-05-06T11:35:54.964Z,14.10
2019-05-06T11:38:32.265Z,14.23
2019-05-06T11:41:07.759Z,16.82
2019-05-06T11:43:44.911Z,15.08
2019-05-06T11:46:22.723Z,13.10
2019-05-06T11:48:57.917Z,13.90
2019-05-06T11:51:33.525Z,14.73
2019-05-06T11:54:17.569Z,14.28
2019-05-06T11:56:50.923Z,19.80
2019-05-06T11:59:23.819Z,16.12
2019-05-06T12:02:04.937Z,14.28
2019-05-06T12:04:42.061Z,15.10
2019-05-06T12:07:17.454Z,16.40
2019-05-06T12:09:54.692Z,16.80
2019-05-06T12:12:30.198Z,18.32
2019-05-06T12:15:07.175Z,18.23
2019-05-06T12:17:42.666Z,16.77
2019-05-06T12:20:18.124Z,18.17
2019-05-06T12:22:53.458Z,18.02
2019-05-06T12:25:29.898Z,17.57
2019-05-06T12:28:05.426Z,18.87
2019-05-06T12:30:42.747Z,17.52
2019-05-06T12:33:36.818Z,18.32
2019-05-06T12:36:18.575Z,20.27
2019-05-06T12:39:16.029Z,17.70
2019-05-06T12:42:14.687Z,17.75
2019-05-06T12:45:08.018Z,19.37
2019-05-06T12:48:02.973Z,17.70
2019-05-06T12:50:38.574Z,15.13
2019-05-06T12:53:14.111Z,18.87
2019-05-06T12:55:52.039Z,17.98
2019-05-06T12:58:28.958Z,13.03
2019-05-06T13:01:05.658Z,15.70
2019-05-06T13:03:43.081Z,17.82
2019-05-06T13:06:18.590Z,18.27
2019-05-06T13:09:01.394Z,14.68
2019-05-06T13:11:31.467Z,16.87
2019-05-06T13:14:06.859Z,17.73
2019-05-06T13:16:42.672Z,19.92
2019-05-06T13:19:27.056Z,15.63
2019-05-06T13:22:05.966Z,19.65
2019-05-06T13:24:41.423Z,16.90
2019-05-06T13:27:18.431Z,17.75
2019-05-06T13:29:53.880Z,18.32
2019-05-06T13:32:31.865Z,16.37
2019-05-06T13:35:07.663Z,16.60
2019-05-06T13:37:43.226Z,16.30
2019-05-06T13:40:18.816Z,17.45
2019-05-06T13:43:13.489Z,18.80
2019-05-06T13:45:52.575Z,17.90
2019-05-06T13:48:36.714Z,17.17
2019-05-06T13:51:14.981Z,13.68
2019-05-06T13:53:52.740Z,16.10
2019-05-06T13:56:27.394Z,11.90
2019-05-06T13:59:05.004Z,13.58
2019-05-06T14:01:55.314Z,17.00
2019-05-06T14:04:32.658Z,13.30
2019-05-06T14:07:08.866Z,16.73
2019-05-06T14:09:55.928Z,17.10
2019-05-06T14:12:34.857Z,16.62
2019-05-06T14:15:12.559Z,14.78
2019-05-06T14:17:48.103Z,15.53
2019-05-06T14:20:23.637Z,12.95
2019-05-06T14:22:58.941Z,15.38
2019-05-06T14:26:04.147Z,13.72
2019-05-06T14:28:44.403Z,15.63
2019-05-06T14:31:27.058Z,11.80
2019-05-06T14:34:02.491Z,12.18
2019-05-06T14:36:37.975Z,11.53
2019-05-06T14:39:23.827Z,11.85
2019-05-06T14:42:03.957Z,10.05
2019-05-06T14:44:43.334Z,11.48
2019-05-06T14:47:29.994Z,8.88
2019-05-06T14:50:09.336Z,10.85
2019-05-06T14:52:44.648Z,12.05
2019-05-06T14:55:24.756Z,11.78
2019-05-06T14:58:04.297Z,13.78
2019-05-06T15:00:45.909Z,13.25
2019-05-06T15:03:28.176Z,11.50
2019-05-06T15:06:12.521Z,11.28
2019-05-06T15:08:47.892Z,14.78
2019-05-06T15:11:26.232Z,15.50
2019-05-06T15:14:03.481Z,19.87
2019-05-06T15:16:43.236Z,14.65
2019-05-06T15:19:37.091Z,15.65
2019-05-06T15:22:13.083Z,12.40
2019-05-06T15:24:53.657Z,17.50
2019-05-06T15:27:28.979Z,15.43
2019-05-06T15:30:14.054Z,14.68
2019-05-06T15:32:49.441Z,13.70
2019-05-06T15:35:41.947Z,14.73
2019-05-06T15:38:26.949Z,15.03
2019-05-06T15:41:08.429Z,15.80
2019-05-06T15:43:45.455Z,17.77
2019-05-06T15:46:22.695Z,13.98
2019-05-06T15:48:57.829Z,13.50
2019-05-06T15:51:36.262Z,13.13
2019-05-06T15:54:11.667Z,15.20
2019-05-06T15:56:47.179Z,13.03
2019-05-06T15:59:23.045Z,15.53
2019-05-06T16:01:58.456Z,20.77
2019-05-06T16:04:33.777Z,17.07
2019-05-06T16:07:09.176Z,18.05
2019-05-06T16:09:44.641Z,16.73
2019-05-06T16:12:21.941Z,15.53
2019-05-06T16:14:57.046Z,16.62
2019-05-06T16:17:32.862Z,14.83
2019-05-06T16:20:08.418Z,16.62
2019-05-06T16:22:45.455Z,15.32
2019-05-06T16:25:21.244Z,15.20
2019-05-06T16:27:57.460Z,16.30
2019-05-06T16:30:33.913Z,16.97
2019-05-06T16:33:09.408Z,16.97
2019-05-06T16:35:45.122Z,17.85
2019-05-06T16:38:22.806Z,18.55
2019-05-06T16:41:09.568Z,16.40
2019-05-06T16:43:34.448Z,19.82
2019-05-06T16:46:16.046Z,20.75
2019-05-06T16:48:57.334Z,21.52
2019-05-06T16:51:32.989Z,19.62
2019-05-06T16:54:08.363Z,19.73
2019-05-06T16:57:02.695Z,19.98
2019-05-06T16:59:43.912Z,22.45
2019-05-06T17:02:26.613Z,20.50
2019-05-06T17:05:22.441Z,18.50
2019-05-06T17:07:59.334Z,19.50
2019-05-06T17:10:34.775Z,19.73
2019-05-06T17:13:12.644Z,20.08
2019-05-06T17:15:49.924Z,20.48
2019-05-06T17:18:25.255Z,21.52
2019-05-06T17:21:00.590Z,19.00
2019-05-06T17:23:36.024Z,18.62
2019-05-06T17:26:12.722Z,19.80
2019-05-06T17:28:57.458Z,20.57
2019-05-06T17:32:07.628Z,19.52
2019-05-06T17:34:46.755Z,19.75
2019-05-06T17:37:52.750Z,20.88
2019-05-06T17:40:28.245Z,21.68
2019-05-06T17:43:03.692Z,20.85
2019-05-06T17:46:02.165Z,24.00
2019-05-06T17:51:37.394Z,27.80
2019-05-06T17:54:12.347Z,20.80
2019-05-06T17:56:48.554Z,30.55
2019-05-06T17:59:24.051Z,35.15
2019-05-06T18:02:01.994Z,24.27
2019-05-06T18:04:37.401Z,24.10
2019-05-06T18:07:12.820Z,23.18
2019-05-06T18:09:48.261Z,21.25
2019-05-06T18:12:23.824Z,22.50
2019-05-06T18:14:59.254Z,24.55
2019-05-06T18:17:34.588Z,24.00
2019-05-06T18:20:10.095Z,26.10
2019-05-06T18:22:45.654Z,23.62
2019-05-06T18:25:22.895Z,26.00
2019-05-06T18:27:58.108Z,24.70
2019-05-06T18:30:39.009Z,24.85
2019-05-06T18:33:14.628Z,28.15
2019-05-06T18:35:49.969Z,27.22
2019-05-06T18:38:25.400Z,23.65
2019-05-06T18:41:02.011Z,23.77
2019-05-06T18:43:37.831Z,22.87
2019-05-06T18:46:13.274Z,25.40
2019-05-06T18:48:48.731Z,23.55
2019-05-06T18:51:24.125Z,28.73
2019-05-06T18:53:59.551Z,26.42
2019-05-06T18:56:35.083Z,31.65
2019-05-06T18:59:12.172Z,25.20
2019-05-06T19:01:47.811Z,25.65
2019-05-06T19:04:33.438Z,27.48
2019-05-06T19:07:13.692Z,27.22
2019-05-06T19:09:54.992Z,27.17
2019-05-06T19:12:39.216Z,28.30
2019-05-06T19:15:08.864Z,26.68
2019-05-06T19:17:44.462Z,28.83
2019-05-06T19:20:21.920Z,28.70
2019-05-06T19:22:57.945Z,28.25
2019-05-06T19:25:34.683Z,29.23
2019-05-06T19:28:12.106Z,31.40
2019-05-06T19:30:47.200Z,29.63
2019-05-06T19:33:22.549Z,28.95
2019-05-06T19:35:58.099Z,26.73
2019-05-06T19:38:33.797Z,27.50
2019-05-06T19:41:09.492Z,30.32
2019-05-06T19:43:44.887Z,31.37
2019-05-06T19:46:20.459Z,32.48
2019-05-06T19:48:55.847Z,29.72
2019-05-06T19:51:33.001Z,31.62
2019-05-06T19:54:12.616Z,33.23
2019-05-06T19:56:48.101Z,31.10
2019-05-06T19:59:23.507Z,31.17
2019-05-06T20:01:59.825Z,28.45
2019-05-06T20:04:36.213Z,29.32
2019-05-06T20:07:45.513Z,26.95
2019-05-06T20:10:41.954Z,32.13
2019-05-06T20:13:16.993Z,27.73
2019-05-06T20:15:52.547Z,31.23
2019-05-06T20:18:27.903Z,32.85
2019-05-06T20:21:03.359Z,29.32
2019-05-06T20:23:38.816Z,32.55
2019-05-06T20:26:14.253Z,35.50
2019-05-06T20:28:49.800Z,34.58
2019-05-06T20:31:25.152Z,32.03
2019-05-06T20:34:02.206Z,32.98
2019-05-06T20:36:37.874Z,31.85
2019-05-06T20:39:13.270Z,36.20
2019-05-06T20:41:48.687Z,38.30
2019-05-06T20:44:24.413Z,37.35
2019-05-06T20:46:59.860Z,37.40
2019-05-06T20:49:38.544Z,33.38
2019-05-06T20:52:13.948Z,36.15
2019-05-06T20:54:49.511Z,38.70
2019-05-06T20:57:24.860Z,37.80
2019-05-06T21:00:00.255Z,38.55
2019-05-06T21:02:35.680Z,38.95
2019-05-06T21:05:13.829Z,38.00
2019-05-06T21:07:49.547Z,35.90
2019-05-06T21:10:24.935Z,43.23
2019-05-06T21:13:02.183Z,42.83
2019-05-06T21:15:37.409Z,41.33
2019-05-06T21:18:15.923Z,41.18
2019-05-06T21:20:51.336Z,40.83
2019-05-06T21:23:28.113Z,40.40
2019-05-06T21:26:03.848Z,40.78
2019-05-06T21:28:39.216Z,41.88
2019-05-06T21:31:14.709Z,35.55
2019-05-06T21:33:52.184Z,43.45
2019-05-06T21:36:27.439Z,45.03
2019-05-06T21:39:02.846Z,40.48
2019-05-06T21:41:39.689Z,36.98
2019-05-06T21:44:15.073Z,42.75
2019-05-06T21:46:50.510Z,39.78
2019-05-06T21:49:25.947Z,38.02
2019-05-06T21:52:02.082Z,42.73
2019-05-06T21:54:37.733Z,41.23
2019-05-06T21:57:13.099Z,49.05
2019-05-06T21:59:48.490Z,47.08
2019-05-06T22:02:23.924Z,44.38
2019-05-06T22:04:59.340Z,41.37
2019-05-06T22:07:35.845Z,40.03
2019-05-06T22:10:11.614Z,43.30
2019-05-06T22:12:46.985Z,48.55
2019-05-06T22:15:22.841Z,37.33
2019-05-06T22:17:58.440Z,40.67
2019-05-06T22:20:52.788Z,42.10
2019-05-06T22:23:47.638Z,44.20
2019-05-06T22:29:03.361Z,41.08
2019-05-06T22:31:43.292Z,43.23
2019-05-06T22:34:22.267Z,39.67
2019-05-06T22:36:57.622Z,43.98
2019-05-06T22:39:38.074Z,38.90
2019-05-06T22:42:16.369Z,38.10
2019-05-06T22:44:51.851Z,36.80
2019-05-06T22:47:27.355Z,41.13
2019-05-06T22:50:02.724Z,41.02
2019-05-06T22:52:38.400Z,41.75
2019-05-06T22:55:14.281Z,41.85
2019-05-06T22:57:49.597Z,41.08
2019-05-06T23:00:26.017Z,39.98
2019-05-06T23:03:05.732Z,44.35
2019-05-06T23:05:42.736Z,44.98
2019-05-06T23:08:18.085Z,41.28
2019-05-06T23:10:53.455Z,42.65
2019-05-06T23:13:28.928Z,44.13
2019-05-06T23:16:04.351Z,42.55
2019-05-06T23:18:39.793Z,47.45
2019-05-06T23:21:15.098Z,40.67
2019-05-06T23:23:54.404Z,46.63
2019-05-06T23:26:36.579Z,43.17
2019-05-06T23:31:48.139Z,44.53
2019-05-06T23:34:23.517Z,44.53
2019-05-06T23:37:26.156Z,44.90
2019-05-06T23:40:42.552Z,49.27
2019-05-06T23:43:53.684Z,46.80
2019-05-06T23:47:04.490Z,43.73
2019-05-06T23:50:15.654Z,45.50
2019-05-06T23:53:26.632Z,43.92
2019-05-06T23:56:37.521Z,46.10
2019-05-06T23:59:14.427Z,46.05
